Time;durP1;ratioP1;P1;durP2;ratioP2;P2;SDS_P1;SDS_P2;PMS_P1;PMS_P2;Temp;Humidity;BMP_temperature;BMP_pressure;BME280_temperature;BME280_humidity;BME280_pressure;Samples;Min_cycle;Max_cycle;Signal;HPM_P1;HPM_P2
2022/10/19 00:01:38;;;;;;;1.02;0.50;;;11.50;99.90;;;;;;5002872;28;20057;-73
2022/10/19 00:04:05;;;;;;;1.20;0.70;;;11.60;99.90;;;;;;5033106;28;20123;-73
2022/10/19 00:06:35;;;;;;;0.73;0.40;;;11.50;99.90;;;;;;5039840;28;20053;-73
2022/10/19 00:09:04;;;;;;;1.42;0.75;;;11.50;99.90;;;;;;5022584;28;20362;-73
2022/10/19 00:11:31;;;;;;;1.33;0.68;;;11.50;99.90;;;;;;5021034;28;20540;-73
2022/10/19 00:13:58;;;;;;;1.13;0.57;;;11.50;99.90;;;;;;5036994;28;20109;-73
2022/10/19 00:16:27;;;;;;;2.08;0.68;;;11.60;99.90;;;;;;5022094;28;20072;-73
2022/10/19 00:19:00;;;;;;;0.73;0.40;;;11.50;99.90;;;;;;5035113;28;20067;-73
2022/10/19 00:21:27;;;;;;;0.68;0.60;;;11.50;99.90;;;;;;5022105;28;20079;-73
2022/10/19 00:23:54;;;;;;;0.47;0.32;;;11.50;99.90;;;;;;5022285;28;20052;-73
2022/10/19 00:26:21;;;;;;;0.38;0.30;;;11.50;99.90;;;;;;5038932;28;20060;-73
2022/10/19 00:28:47;;;;;;;0.93;0.50;;;11.50;99.90;;;;;;5038762;28;20055;-73
2022/10/19 00:31:15;;;;;;;0.73;0.60;;;11.50;99.90;;;;;;5040946;28;20098;-73
2022/10/19 00:33:45;;;;;;;0.47;0.40;;;11.50;99.90;;;;;;5039829;28;20068;-73
2022/10/19 00:36:17;;;;;;;0.88;0.70;;;11.50;99.90;;;;;;5042177;28;20534;-73
2022/10/19 00:38:44;;;;;;;0.40;0.30;;;11.40;99.90;;;;;;5025096;28;20049;-73
2022/10/19 00:41:10;;;;;;;0.63;0.50;;;11.50;99.90;;;;;;5021588;28;20534;-73
2022/10/19 00:44:12;;;;;;;0.85;0.52;;;11.40;99.90;;;;;;5041738;28;20243;-73
2022/10/19 00:46:41;;;;;;;0.38;0.30;;;11.40;99.90;;;;;;5020095;28;20052;-73
2022/10/19 00:49:22;;;;;;;0.85;0.47;;;11.40;99.90;;;;;;5025906;28;20075;-73
2022/10/19 00:51:57;;;;;;;1.58;0.60;;;11.40;99.90;;;;;;5023480;28;20136;-72
2022/10/19 00:54:24;;;;;;;0.43;0.40;;;11.40;99.90;;;;;;5024075;28;20922;-73
2022/10/19 00:56:52;;;;;;;1.17;0.60;;;11.40;99.90;;;;;;5042077;28;20075;-73
2022/10/19 00:59:22;;;;;;;0.73;0.57;;;11.40;99.90;;;;;;5025645;28;20051;-73
2022/10/19 01:01:48;;;;;;;0.73;0.60;;;11.40;99.90;;;;;;5020559;28;20061;-78
2022/10/19 01:04:15;;;;;;;2.83;1.05;;;11.40;99.90;;;;;;5023835;28;20055;-73
2022/10/19 01:06:42;;;;;;;1.70;0.95;;;11.40;99.90;;;;;;5024802;28;20067;-73
2022/10/19 01:09:09;;;;;;;1.35;0.80;;;11.40;99.90;;;;;;5041633;28;20172;-73
2022/10/19 01:11:56;;;;;;;2.67;1.42;;;11.40;99.90;;;;;;5025174;28;20156;-73
2022/10/19 01:14:27;;;;;;;1.80;0.88;;;11.40;99.90;;;;;;5038388;28;20620;-73
2022/10/19 01:17:13;;;;;;;1.48;0.80;;;11.40;99.90;;;;;;5023993;28;20049;-73
2022/10/19 01:20:11;;;;;;;1.40;1.00;;;11.40;99.90;;;;;;5040784;28;20093;-73
2022/10/19 01:22:46;;;;;;;0.80;0.60;;;11.50;99.90;;;;;;5042299;28;20088;-73
2022/10/19 01:25:16;;;;;;;1.50;0.82;;;11.50;99.90;;;;;;5040478;28;20469;-73
2022/10/19 01:28:03;;;;;;;0.63;0.50;;;11.40;99.90;;;;;;5042644;28;20500;-73
2022/10/19 01:30:44;;;;;;;1.42;0.70;;;11.50;99.90;;;;;;5025667;28;20044;-73
2022/10/19 01:33:17;;;;;;;2.13;0.80;;;11.50;99.90;;;;;;5008632;28;20045;-73
2022/10/19 01:35:45;;;;;;;1.90;0.90;;;11.50;99.90;;;;;;5042851;28;20072;-73
2022/10/19 01:38:30;;;;;;;1.33;0.70;;;11.50;99.90;;;;;;5025957;28;20057;-73
2022/10/19 01:41:30;;;;;;;2.55;0.90;;;11.50;99.90;;;;;;5026574;28;20070;-73
2022/10/19 01:43:59;;;;;;;1.52;0.82;;;11.50;99.90;;;;;;5020815;28;20102;-73
2022/10/19 01:46:36;;;;;;;2.55;1.00;;;11.60;99.90;;;;;;5040604;28;20076;-73
2022/10/19 01:49:43;;;;;;;4.18;1.45;;;11.60;99.90;;;;;;5028188;28;20583;-73
2022/10/19 01:52:12;;;;;;;1.35;0.73;;;11.60;99.90;;;;;;4985815;28;20153;-72
2022/10/19 01:54:41;;;;;;;1.73;0.98;;;11.60;99.90;;;;;;4987161;28;20188;-73
2022/10/19 01:57:09;;;;;;;2.40;0.80;;;11.70;99.90;;;;;;5007947;28;20049;-73
2022/10/19 01:59:35;;;;;;;1.20;0.88;;;11.70;99.90;;;;;;5027873;28;20064;-73
2022/10/19 02:02:03;;;;;;;1.63;0.80;;;11.70;99.90;;;;;;5010063;28;20053;-73
2022/10/19 02:04:29;;;;;;;0.55;0.45;;;11.70;99.90;;;;;;5027585;28;20055;-73
2022/10/19 02:06:56;;;;;;;0.98;0.63;;;11.70;99.90;;;;;;5045064;28;20052;-73
2022/10/19 02:09:23;;;;;;;2.03;0.77;;;11.70;99.90;;;;;;5027244;28;20045;-73
2022/10/19 02:11:55;;;;;;;1.17;0.70;;;11.70;99.90;;;;;;5044173;28;20036;-73
2022/10/19 02:14:27;;;;;;;0.77;0.60;;;11.70;99.90;;;;;;5025087;28;20041;-73
2022/10/19 02:16:58;;;;;;;1.20;0.65;;;11.70;99.90;;;;;;5042935;28;20049;-73
2022/10/19 02:19:25;;;;;;;1.20;0.60;;;11.70;99.90;;;;;;5011025;28;20037;-73
2022/10/19 02:21:52;;;;;;;1.90;0.65;;;11.80;99.90;;;;;;5043087;28;20152;-73
2022/10/19 02:24:19;;;;;;;1.13;0.52;;;11.80;99.90;;;;;;5042017;28;20073;-72
2022/10/19 02:26:45;;;;;;;1.70;0.75;;;11.80;99.90;;;;;;5040752;28;20135;-73
2022/10/19 02:29:13;;;;;;;0.73;0.43;;;11.80;99.90;;;;;;5027246;28;20041;-73
2022/10/19 02:31:39;;;;;;;1.13;0.47;;;11.80;99.90;;;;;;5030702;28;20049;-73
2022/10/19 02:34:06;;;;;;;0.50;0.30;;;11.80;99.90;;;;;;5024965;28;20041;-73
2022/10/19 02:36:33;;;;;;;1.27;0.70;;;11.80;99.90;;;;;;5042477;28;20049;-73
2022/10/19 02:38:59;;;;;;;1.15;0.60;;;11.80;99.90;;;;;;5043357;28;20041;-73
2022/10/19 02:41:54;;;;;;;0.35;0.22;;;11.80;99.90;;;;;;5038895;28;20472;-72
2022/10/19 02:45:01;;;;;;;1.25;0.80;;;11.80;99.90;;;;;;5023823;28;20368;-73
2022/10/19 02:47:30;;;;;;;1.25;0.40;;;11.90;99.90;;;;;;5031091;28;20040;-72
2022/10/19 02:49:58;;;;;;;2.47;0.70;;;11.90;99.90;;;;;;5026835;28;20353;-73
2022/10/19 02:52:24;;;;;;;2.50;0.63;;;11.90;99.90;;;;;;5026213;28;20159;-73
2022/10/19 02:54:51;;;;;;;1.88;0.93;;;11.90;99.90;;;;;;5044259;28;20609;-73
2022/10/19 02:57:22;;;;;;;1.25;0.68;;;11.90;99.90;;;;;;5044566;28;20045;-73
2022/10/19 02:59:48;;;;;;;4.10;1.27;;;11.90;99.90;;;;;;5026749;28;20041;-73
2022/10/19 03:02:15;;;;;;;2.65;1.00;;;11.90;99.90;;;;;;5043394;28;20053;-73
2022/10/19 03:04:43;;;;;;;1.35;0.75;;;11.90;99.90;;;;;;5043723;28;20048;-73
2022/10/19 03:07:13;;;;;;;2.45;1.00;;;11.90;99.90;;;;;;5041909;28;20049;-73
2022/10/19 03:09:41;;;;;;;1.55;0.82;;;11.90;99.90;;;;;;5043011;28;20404;-73
2022/10/19 03:12:07;;;;;;;1.23;0.70;;;11.90;99.90;;;;;;5044036;28;20336;-72
2022/10/19 03:14:34;;;;;;;1.50;0.80;;;11.90;99.90;;;;;;5042930;28;20377;-72
2022/10/19 03:17:01;;;;;;;3.05;1.40;;;11.90;99.90;;;;;;5025443;28;20045;-72
2022/10/19 03:19:28;;;;;;;2.13;0.93;;;11.90;99.90;;;;;;5025581;28;20120;-72
2022/10/19 03:21:55;;;;;;;2.17;1.30;;;11.90;99.90;;;;;;5043142;28;20045;-73
2022/10/19 03:24:21;;;;;;;1.75;1.10;;;12.00;99.90;;;;;;5042711;28;20461;-73
2022/10/19 03:26:48;;;;;;;1.70;1.08;;;12.00;99.90;;;;;;5042350;28;20051;-73
2022/10/19 03:29:15;;;;;;;1.90;1.08;;;12.00;99.90;;;;;;5042434;28;20048;-73
2022/10/19 03:31:41;;;;;;;1.50;0.93;;;12.00;99.90;;;;;;5042088;28;20552;-73
2022/10/19 03:34:08;;;;;;;3.00;1.00;;;12.00;99.90;;;;;;5043575;28;20135;-73
2022/10/19 03:36:37;;;;;;;2.65;1.38;;;12.00;99.90;;;;;;5041655;28;20440;-72
2022/10/19 03:39:11;;;;;;;2.35;0.85;;;12.00;99.90;;;;;;5042856;28;20059;-73
2022/10/19 03:41:38;;;;;;;1.80;0.80;;;12.00;99.90;;;;;;5010138;28;20053;-73
2022/10/19 03:44:05;;;;;;;2.17;0.90;;;12.00;99.90;;;;;;5029336;28;20392;-72
2022/10/19 03:46:32;;;;;;;1.45;0.80;;;12.00;99.90;;;;;;5024330;28;20038;-73
2022/10/19 03:48:59;;;;;;;2.95;0.90;;;12.00;99.90;;;;;;5027342;28;20053;-73
2022/10/19 03:51:27;;;;;;;1.50;0.63;;;12.00;99.90;;;;;;5061232;28;20055;-73
2022/10/19 03:53:56;;;;;;;1.33;0.70;;;12.00;99.90;;;;;;5029361;28;20050;-73
2022/10/19 03:56:24;;;;;;;1.27;0.57;;;12.00;99.90;;;;;;5033993;28;20143;-73
2022/10/19 03:58:51;;;;;;;1.15;0.52;;;12.00;99.90;;;;;;5028451;28;20074;-73
2022/10/19 04:01:23;;;;;;;1.75;0.85;;;12.00;99.90;;;;;;5011514;28;20047;-73
2022/10/19 04:03:58;;;;;;;1.83;0.83;;;12.00;99.90;;;;;;5039511;28;20054;-73
2022/10/19 04:06:28;;;;;;;0.68;0.40;;;12.00;99.90;;;;;;5018505;28;20289;-73
2022/10/19 04:08:55;;;;;;;0.73;0.50;;;12.00;99.90;;;;;;5031909;28;20045;-73
2022/10/19 04:11:23;;;;;;;0.50;0.40;;;12.00;99.90;;;;;;5051305;28;20044;-73
2022/10/19 04:13:50;;;;;;;1.17;0.60;;;12.00;99.90;;;;;;5046974;28;20048;-73
2022/10/19 04:16:17;;;;;;;1.75;0.52;;;12.00;99.90;;;;;;5048165;28;20040;-73
2022/10/19 04:18:44;;;;;;;1.45;0.50;;;12.00;99.90;;;;;;5032989;28;20048;-73
2022/10/19 04:21:24;;;;;;;1.58;0.50;;;12.00;99.90;;;;;;5047278;28;20056;-73
2022/10/19 04:23:52;;;;;;;0.82;0.50;;;12.00;99.90;;;;;;5053201;28;20036;-73
2022/10/19 04:26:19;;;;;;;0.82;0.43;;;12.00;99.90;;;;;;5064804;28;20047;-73
2022/10/19 04:28:46;;;;;;;2.60;0.50;;;12.00;99.90;;;;;;5054694;28;20055;-73
2022/10/19 04:31:13;;;;;;;1.05;0.47;;;12.00;99.90;;;;;;5040581;28;20082;-72
2022/10/19 04:33:39;;;;;;;0.70;0.40;;;12.00;99.90;;;;;;5062534;28;20044;-73
2022/10/19 04:36:08;;;;;;;1.60;0.52;;;12.00;99.90;;;;;;5053927;28;20086;-73
2022/10/19 04:38:35;;;;;;;2.28;1.40;;;12.00;99.90;;;;;;5038346;28;20045;-73
2022/10/19 04:41:09;;;;;;;0.60;0.40;;;12.00;99.90;;;;;;5030898;28;20052;-73
2022/10/19 04:43:36;;;;;;;0.77;0.75;;;12.00;99.90;;;;;;5027146;28;20054;-73
2022/10/19 04:46:08;;;;;;;1.80;0.45;;;12.00;99.90;;;;;;5026760;28;20041;-73
2022/10/19 04:48:35;;;;;;;2.35;0.70;;;12.00;99.90;;;;;;5027781;28;20046;-73
2022/10/19 04:51:03;;;;;;;0.85;0.40;;;12.10;99.90;;;;;;5064382;28;20056;-73
2022/10/19 04:53:30;;;;;;;1.75;0.65;;;12.10;99.90;;;;;;5034321;28;20128;-73
2022/10/19 04:55:56;;;;;;;1.33;0.50;;;12.10;99.90;;;;;;5033818;28;20044;-73
2022/10/19 04:58:23;;;;;;;3.03;1.77;;;12.10;99.90;;;;;;5055055;28;20069;-73
2022/10/19 05:00:50;;;;;;;1.23;0.60;;;12.10;99.90;;;;;;5047892;28;20132;-72
2022/10/19 05:03:17;;;;;;;1.30;0.52;;;12.10;99.90;;;;;;5044167;28;20057;-72
2022/10/19 05:05:44;;;;;;;1.02;0.50;;;12.10;99.90;;;;;;5024353;28;20041;-72
2022/10/19 05:08:10;;;;;;;0.90;0.50;;;12.10;99.90;;;;;;5042650;28;20401;-72
2022/10/19 05:10:37;;;;;;;2.45;1.40;;;12.10;99.90;;;;;;5030377;28;20045;-72
2022/10/19 05:13:04;;;;;;;2.33;1.30;;;12.10;99.90;;;;;;5038990;28;20059;-72
2022/10/19 05:15:30;;;;;;;1.63;1.13;;;12.10;99.90;;;;;;5024947;28;20056;-72
2022/10/19 05:17:57;;;;;;;3.60;1.60;;;12.10;99.90;;;;;;5042306;28;20052;-72
2022/10/19 05:20:24;;;;;;;2.88;1.77;;;12.10;99.90;;;;;;5021874;28;20060;-72
2022/10/19 05:22:50;;;;;;;2.53;1.10;;;12.10;99.90;;;;;;5040178;28;20056;-72
2022/10/19 05:25:17;;;;;;;3.10;1.50;;;12.10;99.90;;;;;;5030587;28;20075;-73
2022/10/19 05:27:44;;;;;;;2.47;0.88;;;12.10;99.90;;;;;;5041313;28;20128;-73
2022/10/19 05:30:13;;;;;;;2.78;0.88;;;12.10;99.90;;;;;;5041545;28;20159;-74
2022/10/19 05:32:39;;;;;;;3.47;1.17;;;12.10;99.90;;;;;;5043428;28;20463;-73
2022/10/19 05:35:07;;;;;;;3.65;1.25;;;12.10;99.90;;;;;;5038249;28;20055;-73
2022/10/19 05:37:33;;;;;;;2.72;1.10;;;12.10;99.90;;;;;;5039778;28;20091;-73
2022/10/19 05:40:01;;;;;;;2.22;1.08;;;12.10;99.90;;;;;;5041357;28;20057;-73
2022/10/19 05:42:27;;;;;;;2.20;1.02;;;12.10;99.90;;;;;;5037544;28;20045;-72
2022/10/19 05:44:54;;;;;;;2.50;1.17;;;12.10;99.90;;;;;;5029030;28;20048;-72
2022/10/19 05:47:21;;;;;;;3.08;1.17;;;12.10;99.90;;;;;;5045230;28;20467;-73
2022/10/19 05:49:50;;;;;;;2.63;1.02;;;12.10;99.90;;;;;;5039628;28;20114;-73
2022/10/19 05:52:17;;;;;;;2.17;1.25;;;12.10;99.90;;;;;;5040291;28;20135;-73
2022/10/19 05:54:44;;;;;;;2.72;1.20;;;12.00;99.90;;;;;;5043818;28;20041;-73
2022/10/19 05:57:10;;;;;;;1.67;0.82;;;12.10;99.90;;;;;;5039698;28;20049;-77
2022/10/19 05:59:38;;;;;;;2.45;1.20;;;12.10;99.90;;;;;;5035418;28;20053;-74
2022/10/19 06:02:04;;;;;;;3.15;1.65;;;12.10;99.90;;;;;;5057141;28;20063;-74
2022/10/19 06:04:32;;;;;;;4.30;1.90;;;12.10;99.90;;;;;;5052435;28;20048;-74
2022/10/19 06:06:59;;;;;;;3.60;1.75;;;12.10;99.90;;;;;;5059241;28;20057;-76
2022/10/19 06:09:26;;;;;;;3.28;1.60;;;12.10;99.90;;;;;;5039180;28;20049;-77
2022/10/19 06:11:53;;;;;;;3.72;1.70;;;12.10;99.90;;;;;;5053125;28;20762;-76
2022/10/19 06:14:20;;;;;;;3.15;1.70;;;12.10;99.90;;;;;;5038471;28;20645;-74
2022/10/19 06:16:46;;;;;;;2.85;1.20;;;12.10;99.90;;;;;;5055819;28;20052;-74
2022/10/19 06:19:13;;;;;;;4.43;1.60;;;12.10;99.90;;;;;;5025923;28;20163;-74
2022/10/19 06:21:40;;;;;;;4.45;1.70;;;12.10;99.90;;;;;;5046117;28;20048;-74
2022/10/19 06:24:11;;;;;;;2.72;1.38;;;12.20;99.90;;;;;;5046492;28;20060;-74
2022/10/19 06:26:38;;;;;;;4.20;1.75;;;12.20;99.90;;;;;;5026555;28;20053;-74
2022/10/19 06:29:05;;;;;;;5.95;1.98;;;12.20;99.90;;;;;;5026288;28;20045;-74
2022/10/19 06:31:33;;;;;;;2.92;1.20;;;12.20;99.90;;;;;;5037959;28;20064;-74
2022/10/19 06:34:00;;;;;;;3.60;1.42;;;12.20;99.90;;;;;;5043300;28;20519;-74
2022/10/19 06:36:28;;;;;;;3.83;1.48;;;12.30;99.90;;;;;;5038323;28;20476;-74
2022/10/19 06:38:55;;;;;;;2.72;1.50;;;12.30;99.90;;;;;;5052668;28;20049;-75
2022/10/19 06:41:22;;;;;;;5.80;2.45;;;12.30;99.90;;;;;;5039732;28;20420;-75
2022/10/19 06:43:53;;;;;;;2.97;1.85;;;12.30;99.90;;;;;;5038561;28;20083;-75
2022/10/19 06:46:22;;;;;;;4.78;1.58;;;12.40;99.90;;;;;;5038460;28;20057;-75
2022/10/19 06:48:54;;;;;;;2.33;1.35;;;12.30;99.90;;;;;;5038785;28;20135;-75
2022/10/19 06:51:21;;;;;;;2.88;1.55;;;12.40;99.90;;;;;;5021711;28;20103;-74
2022/10/19 06:53:48;;;;;;;5.07;1.90;;;12.40;99.90;;;;;;5034277;28;20057;-74
2022/10/19 06:56:23;;;;;;;4.35;1.60;;;12.40;99.90;;;;;;5018958;28;20053;-74
2022/10/19 06:58:50;;;;;;;2.38;1.50;;;12.50;99.90;;;;;;5021607;28;20061;-74
2022/10/19 07:01:17;;;;;;;5.32;2.00;;;12.50;99.90;;;;;;5037511;28;20049;-74
2022/10/19 07:03:44;;;;;;;3.97;1.70;;;12.50;99.90;;;;;;5038612;28;20057;-74
2022/10/19 07:06:11;;;;;;;5.15;2.10;;;12.50;99.90;;;;;;5017644;28;20464;-74
2022/10/19 07:08:38;;;;;;;4.28;2.10;;;12.60;99.90;;;;;;5019227;28;20493;-74
2022/10/19 07:11:10;;;;;;;4.38;2.22;;;12.60;99.90;;;;;;5021513;28;20045;-74
2022/10/19 07:13:37;;;;;;;3.13;1.65;;;12.60;99.90;;;;;;5033791;28;20053;-74
2022/10/19 07:16:10;;;;;;;5.20;1.52;;;12.70;99.90;;;;;;5001760;28;20049;-74
2022/10/19 07:18:43;;;;;;;3.22;1.63;;;12.70;99.90;;;;;;5020203;28;20285;-74
2022/10/19 07:21:12;;;;;;;5.53;1.85;;;12.70;99.90;;;;;;5037560;28;20056;-78
2022/10/19 07:23:39;;;;;;;4.88;1.30;;;12.80;99.90;;;;;;5033961;28;20057;-78
2022/10/19 07:26:11;;;;;;;4.90;1.65;;;12.80;99.90;;;;;;5001467;28;20053;-79
2022/10/19 07:28:38;;;;;;;4.75;1.92;;;12.90;99.90;;;;;;5003912;28;20558;-79
2022/10/19 07:31:10;;;;;;;4.03;1.65;;;12.90;99.90;;;;;;5005120;28;20048;-79
2022/10/19 07:33:37;;;;;;;3.50;1.45;;;13.00;99.90;;;;;;5021002;28;20053;-78
2022/10/19 07:36:06;;;;;;;5.78;1.60;;;13.00;99.90;;;;;;5021158;28;20247;-79
2022/10/19 07:38:34;;;;;;;4.88;1.75;;;13.10;99.90;;;;;;5036885;28;20045;-77
2022/10/19 07:41:08;;;;;;;4.88;1.30;;;13.10;99.90;;;;;;5006147;28;20057;-78
2022/10/19 07:43:35;;;;;;;2.97;1.13;;;13.20;99.90;;;;;;5005351;28;20061;-79
2022/10/19 07:46:04;;;;;;;5.47;1.60;;;13.20;99.90;;;;;;5005526;28;20442;-79
2022/10/19 07:48:31;;;;;;;4.20;1.38;;;13.30;99.90;;;;;;4988942;28;20053;-78
2022/10/19 07:50:59;;;;;;;4.25;1.48;;;13.30;99.90;;;;;;5025243;28;20060;-78
2022/10/19 07:53:26;;;;;;;5.20;1.45;;;13.30;99.90;;;;;;5022186;28;20125;-77
2022/10/19 07:55:53;;;;;;;4.47;1.50;;;13.40;99.90;;;;;;5006105;28;20045;-77
2022/10/19 07:58:20;;;;;;;6.28;1.85;;;13.40;99.90;;;;;;5005163;28;20049;-80
2022/10/19 08:00:47;;;;;;;5.57;1.50;;;13.50;99.90;;;;;;5026741;28;20049;-81
2022/10/19 08:03:15;;;;;;;2.95;1.48;;;13.50;99.90;;;;;;5029986;28;20398;-77
2022/10/19 08:06:03;;;;;;;3.75;1.52;;;13.60;99.90;;;;;;5008142;28;20786;-77
2022/10/19 08:08:30;;;;;;;5.55;1.95;;;13.70;99.90;;;;;;4988790;28;20057;-77
2022/10/19 08:10:57;;;;;;;4.00;1.85;;;13.80;99.90;;;;;;4989413;28;20249;-78
2022/10/19 08:13:24;;;;;;;5.05;1.40;;;13.80;99.90;;;;;;4996383;28;20057;-78
2022/10/19 08:15:51;;;;;;;4.95;2.00;;;13.90;99.90;;;;;;5021234;28;20049;-78
2022/10/19 08:18:20;;;;;;;5.03;2.17;;;13.90;99.90;;;;;;5020968;28;20053;-80
2022/10/19 08:20:48;;;;;;;4.10;1.60;;;14.00;99.90;;;;;;5021675;28;20049;-79
2022/10/19 08:23:15;;;;;;;3.88;1.98;;;14.00;99.90;;;;;;5005092;28;20123;-81
2022/10/19 08:25:42;;;;;;;2.78;1.23;;;14.10;99.90;;;;;;5005112;28;20053;-78
2022/10/19 08:28:09;;;;;;;3.60;1.70;;;14.20;99.90;;;;;;5021865;28;20056;-78
2022/10/19 08:30:36;;;;;;;5.15;1.60;;;14.20;99.90;;;;;;5021373;28;20061;-78
2022/10/19 08:33:06;;;;;;;2.50;1.42;;;14.30;99.90;;;;;;5026766;28;20207;-79
2022/10/19 08:35:34;;;;;;;2.85;1.20;;;14.40;99.90;;;;;;5004712;28;20516;-79
2022/10/19 08:38:00;;;;;;;5.28;1.45;;;14.60;99.90;;;;;;4988570;28;20060;-78
2022/10/19 08:40:29;;;;;;;5.65;1.70;;;14.60;99.90;;;;;;5021033;28;20152;-78
2022/10/19 08:43:09;;;;;;;5.82;1.90;;;14.70;99.90;;;;;;5021276;28;20077;-78
2022/10/19 08:45:43;;;;;;;5.85;2.10;;;14.70;99.90;;;;;;5022256;28;20782;-78
2022/10/19 08:48:31;;;;;;;6.13;2.00;;;14.70;99.90;;;;;;4987666;28;20050;-78
2022/10/19 08:50:58;;;;;;;6.32;1.92;;;14.80;99.90;;;;;;5023537;28;20052;-78
2022/10/19 08:53:37;;;;;;;3.13;1.70;;;14.90;99.90;;;;;;5003897;28;20136;-78
2022/10/19 08:56:24;;;;;;;7.53;2.08;;;15.00;99.90;;;;;;5037287;28;20053;-78
2022/10/19 08:59:17;;;;;;;5.80;1.77;;;15.00;99.90;;;;;;5026590;28;20457;-78
2022/10/19 09:01:51;;;;;;;6.97;2.00;;;15.00;99.90;;;;;;5023693;28;20385;-79
2022/10/19 09:04:31;;;;;;;4.38;1.50;;;15.00;99.90;;;;;;5040091;28;20294;-78
2022/10/19 09:07:18;;;;;;;3.70;1.58;;;15.10;99.90;;;;;;5040086;28;20045;-78
2022/10/19 09:09:52;;;;;;;6.03;1.85;;;15.10;99.90;;;;;;5041832;28;20575;-78
2022/10/19 09:12:32;;;;;;;3.17;1.80;;;15.10;99.90;;;;;;5008052;28;20056;-78
2022/10/19 09:15:10;;;;;;;2.88;1.38;;;15.10;99.90;;;;;;5003780;28;20049;-78
2022/10/19 09:17:36;;;;;;;3.10;1.50;;;15.20;99.90;;;;;;5037792;28;20076;-78
2022/10/19 09:20:21;;;;;;;3.67;1.70;;;15.20;99.90;;;;;;5048560;28;20056;-80
2022/10/19 09:22:57;;;;;;;4.50;1.75;;;15.30;99.90;;;;;;5006606;28;20083;-78
2022/10/19 09:25:25;;;;;;;5.88;1.58;;;15.30;99.90;;;;;;5026012;28;20060;-78
2022/10/19 09:28:18;;;;;;;5.72;2.13;;;15.30;99.90;;;;;;5024705;28;20404;-78
2022/10/19 09:30:44;;;;;;;4.25;2.30;;;15.30;99.90;;;;;;5026198;28;20060;-78
2022/10/19 09:33:23;;;;;;;6.25;2.42;;;15.20;99.90;;;;;;5020805;28;20061;-78
2022/10/19 09:35:50;;;;;;;5.85;2.45;;;15.30;99.90;;;;;;4988976;28;20053;-77
2022/10/19 09:38:18;;;;;;;4.90;2.10;;;15.30;99.90;;;;;;4988097;28;20056;-78
2022/10/19 09:40:45;;;;;;;6.78;2.55;;;15.40;99.90;;;;;;5020822;28;20052;-77
2022/10/19 09:43:19;;;;;;;6.80;2.85;;;15.50;99.90;;;;;;5030590;28;20051;-77
2022/10/19 09:46:12;;;;;;;4.72;2.55;;;15.50;99.90;;;;;;5003007;28;20055;-77
2022/10/19 09:48:50;;;;;;;5.43;2.33;;;15.60;99.90;;;;;;5004909;28;20053;-77
2022/10/19 09:51:17;;;;;;;2.92;2.00;;;15.70;99.90;;;;;;5040023;28;20163;-79
2022/10/19 09:53:44;;;;;;;5.10;2.10;;;15.80;99.90;;;;;;5004554;28;20072;-78
2022/10/19 09:56:22;;;;;;;3.90;1.95;;;15.90;99.90;;;;;;5006856;28;20056;-79
2022/10/19 09:58:50;;;;;;;4.68;2.10;;;16.00;99.90;;;;;;4992449;28;20501;-78
2022/10/19 10:01:37;;;;;;;5.82;2.00;;;16.10;99.90;;;;;;5028446;28;20356;-81
2022/10/19 10:04:16;;;;;;;8.35;2.63;;;16.10;99.90;;;;;;5023297;28;20582;-80
2022/10/19 10:06:45;;;;;;;6.75;3.17;;;16.00;99.90;;;;;;5022087;28;20782;-80
2022/10/19 10:09:16;;;;;;;7.97;2.67;;;16.00;99.90;;;;;;5010381;28;20140;-79
2022/10/19 10:11:44;;;;;;;6.65;2.83;;;16.00;99.90;;;;;;5028661;28;20053;-78
2022/10/19 10:14:14;;;;;;;6.43;2.38;;;16.00;99.90;;;;;;5025641;28;20065;-78
2022/10/19 10:16:41;;;;;;;5.78;2.35;;;16.00;99.90;;;;;;5026397;28;20208;-77
2022/10/19 10:19:14;;;;;;;6.15;2.10;;;16.00;99.90;;;;;;5008271;28;20516;-77
2022/10/19 10:21:49;;;;;;;8.05;2.40;;;16.10;99.90;;;;;;5024681;28;20200;-77
2022/10/19 10:24:17;;;;;;;5.95;2.42;;;16.10;99.90;;;;;;5006777;28;20049;-77
2022/10/19 10:26:52;;;;;;;9.25;3.35;;;16.10;99.90;;;;;;5005695;28;20054;-78
2022/10/19 10:29:27;;;;;;;8.95;3.63;;;16.10;99.90;;;;;;5010156;28;20056;-77
2022/10/19 10:31:55;;;;;;;6.05;2.90;;;16.10;99.90;;;;;;5026452;28;20412;-78
2022/10/19 10:34:32;;;;;;;7.28;3.85;;;16.10;99.90;;;;;;5022987;28;20516;-77
2022/10/19 10:37:26;;;;;;;7.68;2.78;;;16.20;99.90;;;;;;5008191;28;20045;-78
2022/10/19 10:39:54;;;;;;;8.65;3.25;;;16.20;99.90;;;;;;5032106;28;20060;-78
2022/10/19 10:42:41;;;;;;;8.63;3.28;;;16.30;99.90;;;;;;5029132;28;20056;-78
2022/10/19 10:45:22;;;;;;;4.35;2.15;;;16.30;99.90;;;;;;5029450;28;20059;-78
2022/10/19 10:47:49;;;;;;;6.13;2.53;;;16.40;99.90;;;;;;5012541;28;20414;-78
2022/10/19 10:50:20;;;;;;;7.50;2.78;;;16.50;99.90;;;;;;5023983;28;20068;-77
2022/10/19 10:52:59;;;;;;;4.55;1.98;;;16.50;99.90;;;;;;4997884;28;20540;-78
2022/10/19 10:55:25;;;;;;;4.47;1.95;;;16.60;99.90;;;;;;5028360;28;20051;-78
2022/10/19 10:57:58;;;;;;;5.47;2.33;;;16.60;99.90;;;;;;5012317;28;20052;-78
2022/10/19 11:00:24;;;;;;;8.25;2.63;;;16.60;99.90;;;;;;5024268;28;20053;-79
2022/10/19 11:02:54;;;;;;;5.78;2.28;;;16.60;99.90;;;;;;4998014;28;20056;-78
2022/10/19 11:05:31;;;;;;;5.20;2.28;;;16.70;99.90;;;;;;5044083;28;20059;-78
2022/10/19 11:08:40;;;;;;;3.50;2.03;;;16.70;99.90;;;;;;5029167;28;20048;-79
2022/10/19 11:11:18;;;;;;;5.40;2.22;;;16.80;99.90;;;;;;5030861;28;20061;-78
2022/10/19 11:13:47;;;;;;;5.68;2.10;;;16.90;99.90;;;;;;5021165;28;20051;-78
2022/10/19 11:16:16;;;;;;;5.80;2.20;;;17.10;99.90;;;;;;5021071;28;20057;-78
2022/10/19 11:19:18;;;;;;;5.03;2.30;;;17.20;99.90;;;;;;5004272;28;20064;-77
2022/10/19 11:22:06;;;;;;;5.28;2.28;;;17.20;99.90;;;;;;5006686;28;20080;-78
2022/10/19 11:25:01;;;;;;;5.70;2.03;;;17.20;99.90;;;;;;5037630;28;20492;-78
2022/10/19 11:27:46;;;;;;;3.38;1.52;;;17.30;99.90;;;;;;5024547;28;20385;-78
2022/10/19 11:30:23;;;;;;;5.47;1.90;;;17.40;99.90;;;;;;5043907;28;20407;-78
2022/10/19 11:33:05;;;;;;;4.20;1.70;;;17.50;99.90;;;;;;5025873;28;20132;-78
2022/10/19 11:35:53;;;;;;;4.50;1.98;;;17.60;99.90;;;;;;5044981;28;20177;-78
2022/10/19 11:38:23;;;;;;;4.70;1.75;;;17.70;99.90;;;;;;5027528;28;20055;-78
2022/10/19 11:41:07;;;;;;;4.95;2.08;;;17.70;99.90;;;;;;5044575;28;20083;-78
2022/10/19 11:44:15;;;;;;;4.25;1.95;;;17.70;99.90;;;;;;5024526;28;20049;-78
2022/10/19 11:47:16;;;;;;;5.78;1.95;;;17.50;99.90;;;;;;5024221;28;20509;-78
2022/10/19 11:50:01;;;;;;;5.00;2.05;;;17.30;99.90;;;;;;5043905;28;20079;-78
2022/10/19 11:52:45;;;;;;;4.32;2.00;;;17.30;99.90;;;;;;5033094;28;20045;-78
2022/10/19 11:55:26;;;;;;;6.75;2.70;;;17.40;99.90;;;;;;5044643;28;20057;-78
2022/10/19 11:57:55;;;;;;;6.20;2.25;;;17.50;99.90;;;;;;5044263;28;20045;-79
2022/10/19 12:00:22;;;;;;;3.10;1.50;;;17.70;99.90;;;;;;5037013;28;20063;-78
2022/10/19 12:03:08;;;;;;;4.75;1.58;;;17.80;99.90;;;;;;5001258;28;20190;-79
2022/10/19 12:05:50;;;;;;;6.90;3.00;;;17.90;99.90;;;;;;5044233;28;20049;-79
2022/10/19 12:08:46;;;;;;;5.93;2.13;;;17.60;99.90;;;;;;5027076;28;20060;-78
2022/10/19 12:11:23;;;;;;;7.15;2.42;;;17.80;99.90;;;;;;5039780;28;20046;-78
2022/10/19 12:13:54;;;;;;;3.83;1.95;;;17.80;99.90;;;;;;5038359;28;20056;-78
2022/10/19 12:16:22;;;;;;;5.82;2.17;;;17.90;99.90;;;;;;5011468;28;20052;-78
2022/10/19 12:18:57;;;;;;;4.85;1.90;;;17.90;99.90;;;;;;5027092;28;20049;-78
2022/10/19 12:21:35;;;;;;;5.90;2.33;;;17.90;99.90;;;;;;5023129;28;20072;-79
2022/10/19 12:24:03;;;;;;;4.57;2.15;;;18.00;99.90;;;;;;5006687;28;20045;-79
2022/10/19 12:26:33;;;;;;;4.68;2.42;;;18.30;99.90;;;;;;5007459;28;20055;-78
2022/10/19 12:29:02;;;;;;;3.95;1.60;;;18.60;99.90;;;;;;5029425;28;20091;-77
2022/10/19 12:31:29;;;;;;;3.58;1.80;;;19.00;99.90;;;;;;5013779;28;20049;-77
2022/10/19 12:34:12;;;;;;;3.88;1.80;;;19.30;99.90;;;;;;5010521;28;20042;-78
2022/10/19 12:37:19;;;;;;;5.97;2.40;;;19.40;99.90;;;;;;5010063;28;20474;-78
2022/10/19 12:40:00;;;;;;;4.78;2.20;;;19.50;99.90;;;;;;5016536;28;20079;-78
2022/10/19 12:42:28;;;;;;;5.18;2.35;;;19.70;99.90;;;;;;5048193;28;20045;-78
2022/10/19 12:45:07;;;;;;;5.78;2.03;;;19.90;99.90;;;;;;5043415;28;20061;-78
2022/10/19 12:47:34;;;;;;;5.95;2.28;;;20.00;99.90;;;;;;5028199;28;20055;-78
2022/10/19 12:50:02;;;;;;;4.82;2.30;;;20.00;99.90;;;;;;5018766;28;20385;-78
2022/10/19 12:52:48;;;;;;;7.15;2.72;;;20.00;99.90;;;;;;5029695;28;20071;-78
2022/10/19 12:55:14;;;;;;;4.38;2.00;;;19.80;99.90;;;;;;5014005;28;20064;-78
2022/10/19 12:57:47;;;;;;;5.95;2.08;;;19.70;99.90;;;;;;5046877;28;20045;-78
2022/10/19 13:00:24;;;;;;;4.32;2.08;;;19.80;99.90;;;;;;5010106;28;20495;-78
2022/10/19 13:03:00;;;;;;;7.07;2.78;;;20.00;99.90;;;;;;4999788;28;20049;-78
2022/10/19 13:05:28;;;;;;;5.80;2.53;;;20.10;99.90;;;;;;5029699;28;20052;-78
2022/10/19 13:07:55;;;;;;;5.60;2.78;;;20.10;99.90;;;;;;5013948;28;20051;-78
2022/10/19 13:10:24;;;;;;;6.05;2.33;;;20.20;99.90;;;;;;5010426;28;20073;-78
2022/10/19 13:12:51;;;;;;;4.50;1.95;;;20.30;99.90;;;;;;5000406;28;20048;-78